Verdon, South Dakota
Current Conditions -  °F | °C
As of 3:53 AM on Sunday 21 Dec 2014 (Local Time) from KABR Reporting Station
Haze Haze  
Wind Chill: 20°   Ceiling: 300
Heat Index: 30°   Visibility: 4mi
Dew Point: 28°   Wind: 13mph
Humidity: 92%   Direction: 190°S
Pressure: 29.8"   Gusts: NA
Location:  45.1644°N, 98.0134°W
Report Text: KABR 210953Z AUTO 19011KT 4SM BR OVC003 M01/M02 A2980 RMK AO2 SLP105 T10111022
Loading
Personal Weather Stations






























Interactive Weather Map New forecast layout! Learn more

10-Day Weather Forecast

Advertisements
Track Severe Weather on mobile